createdAt,value
2023-04-09T00:00:19.893Z,9.745540
2023-04-09T00:01:19.888Z,9.745719
2023-04-09T00:02:19.937Z,9.745782
2023-04-09T00:03:19.916Z,9.745805
2023-04-09T00:04:19.898Z,9.745787
2023-04-09T00:05:19.858Z,9.745750
2023-04-09T00:06:19.851Z,9.745569
2023-04-09T00:07:19.843Z,9.745553
2023-04-09T00:08:19.859Z,9.745569
2023-04-09T00:09:19.832Z,9.745729
2023-04-09T00:10:19.817Z,9.745622
2023-04-09T00:11:19.816Z,9.745539
2023-04-09T00:12:19.805Z,9.745491
2023-04-09T00:13:28.309Z,9.745543
2023-04-09T00:14:21.797Z,9.745405
2023-04-09T00:15:29.967Z,9.745500
2023-04-09T00:16:21.822Z,9.745537
2023-04-09T00:17:19.862Z,9.745237
2023-04-09T00:18:19.782Z,9.745393
2023-04-09T00:19:20.071Z,9.745593
2023-04-09T00:20:19.752Z,9.745320
2023-04-09T00:21:19.746Z,9.745320
2023-04-09T00:22:19.735Z,9.745322
2023-04-09T00:23:19.933Z,9.745417
2023-04-09T00:24:19.716Z,9.745443
2023-04-09T00:25:19.730Z,9.745831
2023-04-09T00:26:19.706Z,9.745537
2023-04-09T00:27:19.689Z,9.744987
2023-04-09T00:28:19.715Z,9.745367
2023-04-09T00:29:19.679Z,9.745408
2023-04-09T00:30:19.665Z,9.745529
2023-04-09T00:31:20.706Z,9.745557
2023-04-09T00:32:20.655Z,9.745255
2023-04-09T00:33:19.677Z,9.745523
2023-04-09T00:34:19.639Z,9.745198
2023-04-09T00:35:19.637Z,9.745321
2023-04-09T00:36:19.626Z,9.745359
2023-04-09T00:37:19.615Z,9.745157
2023-04-09T00:38:19.643Z,9.745448
2023-04-09T00:39:19.609Z,9.745357
2023-04-09T00:40:19.601Z,9.745145
2023-04-09T00:41:19.585Z,9.745405
2023-04-09T00:42:19.590Z,9.745481
2023-04-09T00:43:19.594Z,9.745405
2023-04-09T00:44:19.563Z,9.745467
2023-04-09T00:45:19.560Z,9.745461
2023-04-09T00:46:19.624Z,9.745151
2023-04-09T00:47:19.566Z,9.745015
2023-04-09T00:48:19.576Z,9.745238
2023-04-09T00:49:19.534Z,9.745168
2023-04-09T00:50:19.527Z,9.745322
2023-04-09T00:51:19.513Z,9.745464
2023-04-09T00:52:19.505Z,9.745504
2023-04-09T00:53:19.527Z,9.745366
2023-04-09T00:54:19.494Z,9.745487
2023-04-09T00:55:19.485Z,9.745483
2023-04-09T00:56:19.477Z,9.745130
2023-04-09T00:57:19.472Z,9.745607
2023-04-09T00:58:19.488Z,9.745550
2023-04-09T00:59:19.460Z,9.745400
2023-04-09T01:00:19.445Z,9.745381
2023-04-09T01:01:19.496Z,9.745421
2023-04-09T01:02:19.502Z,9.745477
2023-04-09T01:03:19.539Z,9.745305
2023-04-09T01:04:19.421Z,9.745188
2023-04-09T01:05:19.409Z,9.745458
2023-04-09T01:06:19.400Z,9.745505
2023-04-09T01:07:19.389Z,9.745364
2023-04-09T01:08:19.413Z,9.745398
2023-04-09T01:09:19.372Z,9.745400
2023-04-09T01:10:19.401Z,9.745201
2023-04-09T01:11:19.355Z,9.745156
2023-04-09T01:12:19.350Z,9.745316
2023-04-09T01:13:19.374Z,9.745482
2023-04-09T01:14:19.331Z,9.745517
2023-04-09T01:15:19.335Z,9.745501
2023-04-09T01:16:19.370Z,9.745673
2023-04-09T01:17:19.316Z,9.745720
2023-04-09T01:18:19.320Z,9.745646
2023-04-09T01:19:19.286Z,9.745350
2023-04-09T01:20:19.282Z,9.745402
2023-04-09T01:21:19.283Z,9.745686
2023-04-09T01:22:19.269Z,9.745698
2023-04-09T01:23:19.283Z,9.745703
2023-04-09T01:24:19.256Z,9.745425
2023-04-09T01:25:19.251Z,9.745458
2023-04-09T01:26:19.281Z,9.745500
2023-04-09T01:27:19.227Z,9.745249
2023-04-09T01:28:19.258Z,9.745584
2023-04-09T01:29:19.211Z,9.745425
2023-04-09T01:30:19.251Z,9.745861
2023-04-09T01:31:19.210Z,9.745930
2023-04-09T01:32:19.226Z,9.745811
2023-04-09T01:33:19.208Z,9.745774
2023-04-09T01:34:19.186Z,9.745546
2023-04-09T01:35:19.179Z,9.745721
2023-04-09T01:36:19.172Z,9.745524
2023-04-09T01:37:19.158Z,9.745282
2023-04-09T01:38:19.187Z,9.745382
2023-04-09T01:39:19.145Z,9.745670
2023-04-09T01:40:19.142Z,9.745559
2023-04-09T01:41:19.126Z,9.745685
2023-04-09T01:42:19.119Z,9.745352
2023-04-09T01:43:19.130Z,9.745411
2023-04-09T01:44:19.093Z,9.745433
2023-04-09T01:45:19.102Z,9.745800
2023-04-09T01:46:19.113Z,9.745763
2023-04-09T01:47:19.072Z,9.745564
2023-04-09T01:48:19.094Z,9.745356
2023-04-09T01:49:19.061Z,9.745481
2023-04-09T01:50:19.051Z,9.745578
2023-04-09T01:51:19.044Z,9.745954
2023-04-09T01:52:19.038Z,9.745786
2023-04-09T01:53:19.055Z,9.745344
2023-04-09T01:54:19.020Z,9.746206
2023-04-09T01:55:19.022Z,9.745932
2023-04-09T01:56:19.008Z,9.745705
2023-04-09T01:57:18.997Z,9.746059
2023-04-09T01:58:19.020Z,9.745832
2023-04-09T01:59:18.991Z,9.744954
2023-04-09T02:00:18.994Z,9.744748
2023-04-09T02:01:19.034Z,9.745214
2023-04-09T02:02:19.134Z,9.745161
2023-04-09T02:03:19.013Z,9.744331
2023-04-09T02:04:18.952Z,9.745500
2023-04-09T02:05:18.952Z,9.745180
2023-04-09T02:06:18.932Z,9.745443
2023-04-09T02:07:18.928Z,9.745312
2023-04-09T02:08:18.939Z,9.745342
2023-04-09T02:09:18.905Z,9.745401
2023-04-09T02:10:18.902Z,9.745689
2023-04-09T02:11:18.893Z,9.745728
2023-04-09T02:12:18.902Z,9.745860
2023-04-09T02:13:18.879Z,9.745658
2023-04-09T02:14:18.909Z,9.745696
2023-04-09T02:15:18.864Z,9.745848
2023-04-09T02:16:19.025Z,9.745495
2023-04-09T02:17:18.849Z,9.745655
2023-04-09T02:18:18.837Z,9.745448
2023-04-09T02:19:18.902Z,9.745605
2023-04-09T02:20:18.840Z,9.745184
2023-04-09T02:21:18.816Z,9.745604
2023-04-09T02:22:18.831Z,9.745592
2023-04-09T02:23:18.801Z,9.745557
2023-04-09T02:24:18.890Z,9.745426
2023-04-09T02:25:18.780Z,9.745482
2023-04-09T02:26:18.777Z,9.745486
2023-04-09T02:27:18.781Z,9.745686
2023-04-09T02:28:18.761Z,9.745502
2023-04-09T02:29:18.783Z,9.745529
2023-04-09T02:30:18.746Z,9.745410
2023-04-09T02:31:18.836Z,9.745405
2023-04-09T02:32:18.729Z,9.745487
2023-04-09T02:33:18.726Z,9.745339
2023-04-09T02:34:18.738Z,9.745416
2023-04-09T02:35:18.711Z,9.745458
2023-04-09T02:36:18.702Z,9.745459
2023-04-09T02:37:18.693Z,9.745437
2023-04-09T02:38:18.691Z,9.745384
2023-04-09T02:39:18.703Z,9.745394
2023-04-09T02:40:18.671Z,9.745339
2023-04-09T02:41:18.663Z,9.745456
2023-04-09T02:42:18.696Z,9.745443
2023-04-09T02:43:18.655Z,9.745448
2023-04-09T02:44:18.667Z,9.745463
2023-04-09T02:45:18.637Z,9.745498
2023-04-09T02:46:18.688Z,9.745481
2023-04-09T02:47:18.632Z,9.745419
2023-04-09T02:48:18.612Z,9.745461
2023-04-09T02:49:18.632Z,9.745592
2023-04-09T02:50:18.602Z,9.745564
2023-04-09T02:51:18.589Z,9.745464
2023-04-09T02:52:18.598Z,9.745768
2023-04-09T02:53:18.580Z,9.745586
2023-04-09T02:54:18.586Z,9.745429
2023-04-09T02:55:18.560Z,9.745271
2023-04-09T02:56:18.561Z,9.745355
2023-04-09T02:57:18.544Z,9.745337
2023-04-09T02:58:18.544Z,9.745435
2023-04-09T02:59:18.553Z,9.745502
2023-04-09T03:00:18.524Z,9.744838
2023-04-09T03:01:18.572Z,9.745677
2023-04-09T03:02:18.608Z,9.745585
2023-04-09T03:03:18.571Z,9.745265
2023-04-09T03:04:18.540Z,9.745260
2023-04-09T03:05:18.484Z,9.745618
2023-04-09T03:06:18.700Z,9.745514
2023-04-09T03:07:18.455Z,9.745522
2023-04-09T03:08:18.449Z,9.745411
2023-04-09T03:09:18.478Z,9.745486
2023-04-09T03:10:18.433Z,9.745673
2023-04-09T03:11:18.434Z,9.745545
2023-04-09T03:12:18.419Z,9.745525
2023-04-09T03:13:18.414Z,9.745508
2023-04-09T03:14:18.436Z,9.745548
2023-04-09T03:15:18.398Z,9.745566
2023-04-09T03:16:18.470Z,9.745553
2023-04-09T03:17:18.387Z,9.745458
2023-04-09T03:18:18.373Z,9.745458
2023-04-09T03:19:18.401Z,9.745181
2023-04-09T03:20:18.352Z,9.745634
2023-04-09T03:21:18.354Z,9.745517
2023-04-09T03:22:18.344Z,9.745541
2023-04-09T03:23:18.336Z,9.745422
2023-04-09T03:24:18.353Z,9.745276
2023-04-09T03:25:18.326Z,9.745261
2023-04-09T03:26:18.322Z,9.745283
2023-04-09T03:27:18.305Z,9.745363
2023-04-09T03:28:18.288Z,9.745577
2023-04-09T03:29:18.284Z,9.745674
2023-04-09T03:30:18.315Z,9.745721
2023-04-09T03:31:18.300Z,9.745643
2023-04-09T03:32:19.164Z,9.745351
2023-04-09T03:33:19.256Z,9.745469
2023-04-09T03:34:18.247Z,9.745618
2023-04-09T03:35:18.263Z,9.745696
2023-04-09T03:36:18.232Z,9.745531
2023-04-09T03:37:18.230Z,9.745539
2023-04-09T03:38:18.226Z,9.745443
2023-04-09T03:39:18.208Z,9.745589
2023-04-09T03:40:18.224Z,9.745566
2023-04-09T03:41:18.195Z,9.745574
2023-04-09T03:42:18.182Z,9.745422
2023-04-09T03:43:18.169Z,9.745569
2023-04-09T03:44:18.179Z,9.745616
2023-04-09T03:45:18.181Z,9.745561
2023-04-09T03:46:18.164Z,9.745570
2023-04-09T03:47:18.143Z,9.745630
2023-04-09T03:48:18.136Z,9.745689
2023-04-09T03:49:18.125Z,9.745611
2023-04-09T03:50:18.145Z,9.745358
2023-04-09T03:51:18.107Z,9.745421
2023-04-09T03:52:18.111Z,9.745564
2023-04-09T03:53:18.098Z,9.745355
2023-04-09T03:54:18.112Z,9.745368
2023-04-09T03:55:18.111Z,9.745573
2023-04-09T03:56:18.074Z,9.745725
2023-04-09T03:57:18.066Z,9.745540
2023-04-09T03:58:18.051Z,9.745520
2023-04-09T03:59:18.057Z,9.745417
2023-04-09T04:00:18.070Z,9.745438
2023-04-09T04:01:18.045Z,9.745301
2023-04-09T04:02:18.035Z,9.745542
2023-04-09T04:03:18.182Z,9.745440
2023-04-09T04:04:18.853Z,9.745466
2023-04-09T04:05:18.026Z,9.745542
2023-04-09T04:06:17.995Z,9.745437
2023-04-09T04:07:17.993Z,9.745481
2023-04-09T04:08:17.969Z,9.745440
2023-04-09T04:09:17.960Z,9.745473
2023-04-09T04:10:17.992Z,9.745511
2023-04-09T04:11:17.946Z,9.745339
2023-04-09T04:12:17.939Z,9.745229
2023-04-09T04:13:17.968Z,9.745296
2023-04-09T04:14:17.921Z,9.745137
2023-04-09T04:15:17.938Z,9.745034
2023-04-09T04:16:17.951Z,9.745155
2023-04-09T04:17:17.955Z,9.745513
2023-04-09T04:18:17.898Z,9.747029
2023-04-09T04:19:17.881Z,9.746253
2023-04-09T04:20:17.896Z,9.745582
2023-04-09T04:21:17.877Z,9.745144
2023-04-09T04:22:17.888Z,9.745424
2023-04-09T04:23:17.853Z,9.745255
2023-04-09T04:24:17.834Z,9.745104
2023-04-09T04:25:17.850Z,9.745296
2023-04-09T04:26:17.821Z,9.745432
2023-04-09T04:27:17.815Z,9.745310
2023-04-09T04:28:17.800Z,9.745269
2023-04-09T04:29:17.795Z,9.745234
2023-04-09T04:30:17.828Z,9.745335
2023-04-09T04:31:17.800Z,9.745376
2023-04-09T04:32:17.773Z,9.745322
2023-04-09T04:33:17.770Z,9.745236
2023-04-09T04:34:17.752Z,9.745347
2023-04-09T04:35:17.800Z,9.745702
2023-04-09T04:36:17.757Z,9.745333
2023-04-09T04:37:17.730Z,9.745319
2023-04-09T04:38:17.734Z,9.745602
2023-04-09T04:39:17.717Z,9.745698
2023-04-09T04:40:17.758Z,9.745456
2023-04-09T04:41:17.709Z,9.745301
2023-04-09T04:42:17.713Z,9.745285
2023-04-09T04:43:17.678Z,9.744798
2023-04-09T04:44:17.675Z,9.745129
2023-04-09T04:45:17.697Z,9.745493
2023-04-09T04:46:17.750Z,9.745473
2023-04-09T04:47:17.716Z,9.745555
2023-04-09T04:48:17.639Z,9.745608
2023-04-09T04:49:17.637Z,9.745472
2023-04-09T04:50:17.657Z,9.745467
2023-04-09T04:51:17.622Z,9.745381
2023-04-09T04:52:17.942Z,9.745456
2023-04-09T04:53:18.601Z,9.745755
2023-04-09T04:54:17.600Z,9.745608
2023-04-09T04:55:17.609Z,9.745317
2023-04-09T04:56:17.616Z,9.745246
2023-04-09T04:57:17.569Z,9.745813
2023-04-09T04:58:17.559Z,9.745648
2023-04-09T04:59:17.551Z,9.745788
2023-04-09T05:00:17.596Z,9.745708
2023-04-09T05:01:17.561Z,9.745653
2023-04-09T05:02:17.751Z,9.745280
2023-04-09T05:03:17.578Z,9.745749
2023-04-09T05:04:17.552Z,9.746012
2023-04-09T05:05:17.536Z,9.746143
2023-04-09T05:06:17.505Z,9.745505
2023-04-09T05:07:17.489Z,9.745649
2023-04-09T05:08:17.478Z,9.745502
2023-04-09T05:09:17.490Z,9.745406
2023-04-09T05:10:17.501Z,9.745192
2023-04-09T05:11:17.453Z,9.745315
2023-04-09T05:12:17.443Z,9.745526
2023-04-09T05:13:17.448Z,9.745794
2023-04-09T05:14:17.432Z,9.745635
2023-04-09T05:15:17.445Z,9.745548
2023-04-09T05:16:17.448Z,9.745672
2023-04-09T05:17:17.462Z,9.745639
2023-04-09T05:18:17.408Z,9.745418
2023-04-09T05:19:17.392Z,9.745609
2023-04-09T05:20:17.409Z,9.745702
2023-04-09T05:21:17.375Z,9.745956
2023-04-09T05:22:17.368Z,9.745851
2023-04-09T05:23:17.497Z,9.745647
2023-04-09T05:24:17.357Z,9.745479
2023-04-09T05:25:17.371Z,9.745732
2023-04-09T05:26:17.407Z,9.745617
2023-04-09T05:27:17.331Z,9.745901
2023-04-09T05:28:17.325Z,9.746181
2023-04-09T05:29:17.326Z,9.745936
2023-04-09T05:30:17.345Z,9.745724
2023-04-09T05:31:17.387Z,9.745681
2023-04-09T05:32:17.303Z,9.745643
2023-04-09T05:33:17.278Z,9.745979
2023-04-09T05:34:17.273Z,9.745837
2023-04-09T05:35:17.296Z,9.745272
2023-04-09T05:36:17.255Z,9.745308
2023-04-09T05:37:17.249Z,9.745463
2023-04-09T05:38:17.245Z,9.745312
2023-04-09T05:39:17.236Z,9.745847
2023-04-09T05:40:17.232Z,9.745710
2023-04-09T05:41:17.250Z,9.745212
2023-04-09T05:42:17.208Z,9.745192
2023-04-09T05:43:17.202Z,9.745445
2023-04-09T05:44:17.192Z,9.745570
2023-04-09T05:45:17.192Z,9.745501
2023-04-09T05:46:17.254Z,9.745521
2023-04-09T05:47:17.169Z,9.745215
2023-04-09T05:48:17.172Z,9.745281
2023-04-09T05:49:17.154Z,9.745326
2023-04-09T05:50:17.150Z,9.745596
2023-04-09T05:51:17.179Z,9.745485
2023-04-09T05:52:17.130Z,9.745194
2023-04-09T05:53:17.133Z,9.745382
2023-04-09T05:54:17.125Z,9.745408
2023-04-09T05:55:17.111Z,9.745234
2023-04-09T05:56:17.134Z,9.745374
2023-04-09T05:57:17.100Z,9.745412
2023-04-09T05:58:17.087Z,9.745531
2023-04-09T05:59:17.085Z,9.745748
2023-04-09T06:00:17.075Z,9.745306
2023-04-09T06:01:17.087Z,9.745330
2023-04-09T06:02:17.141Z,9.745323
2023-04-09T06:03:17.186Z,9.745243
2023-04-09T06:04:17.355Z,9.745408
2023-04-09T06:05:17.032Z,9.745408
2023-04-09T06:06:17.049Z,9.745617
2023-04-09T06:07:17.015Z,9.745647
2023-04-09T06:08:17.006Z,9.745534
2023-04-09T06:09:17.010Z,9.745526
2023-04-09T06:10:17.005Z,9.745661
2023-04-09T06:11:17.025Z,9.745572
2023-04-09T06:12:16.973Z,9.745584
2023-04-09T06:13:16.972Z,9.745493
2023-04-09T06:14:16.971Z,9.745465
2023-04-09T06:15:16.952Z,9.745630
2023-04-09T06:16:17.082Z,9.745914
2023-04-09T06:17:16.941Z,9.745769
2023-04-09T06:18:16.932Z,9.745615
2023-04-09T06:19:16.915Z,9.745446
2023-04-09T06:20:16.915Z,9.745667
2023-04-09T06:21:16.932Z,9.745684
2023-04-09T06:22:16.899Z,9.745857
2023-04-09T06:23:16.886Z,9.745628
2023-04-09T06:24:16.878Z,9.745587
2023-04-09T06:25:16.874Z,9.745682
2023-04-09T06:26:16.892Z,9.745899
2023-04-09T06:27:16.858Z,9.745672
2023-04-09T06:28:16.847Z,9.745698
2023-04-09T06:29:16.842Z,9.745708
2023-04-09T06:30:16.834Z,9.745692
2023-04-09T06:31:16.857Z,9.745449
2023-04-09T06:32:16.822Z,9.745527
2023-04-09T06:33:16.859Z,9.745637
2023-04-09T06:34:16.810Z,9.745798
2023-04-09T06:35:16.798Z,9.745954
2023-04-09T06:36:16.858Z,9.746000
2023-04-09T06:37:16.784Z,9.745940
2023-04-09T06:38:16.770Z,9.746025
2023-04-09T06:39:16.760Z,9.746005
2023-04-09T06:40:16.752Z,9.745865
2023-04-09T06:41:16.773Z,9.745887
2023-04-09T06:42:16.738Z,9.746432
2023-04-09T06:43:16.730Z,9.746094
2023-04-09T06:44:16.722Z,9.746070
2023-04-09T06:45:16.737Z,9.746315
2023-04-09T06:46:16.761Z,9.745954
2023-04-09T06:47:16.699Z,9.745406
2023-04-09T06:48:16.692Z,9.745328
2023-04-09T06:49:16.682Z,9.745765
2023-04-09T06:50:17.692Z,9.746503
2023-04-09T06:51:16.704Z,9.746363
2023-04-09T06:52:16.675Z,9.745750
2023-04-09T06:53:16.707Z,9.746128
2023-04-09T06:54:16.646Z,9.745790
2023-04-09T06:55:16.657Z,9.745188
2023-04-09T06:56:16.658Z,9.745461
2023-04-09T06:57:16.620Z,9.746136
2023-04-09T06:58:16.615Z,9.746358
2023-04-09T06:59:16.610Z,9.745879
2023-04-09T07:00:16.609Z,9.745579
2023-04-09T07:01:16.654Z,9.745234
2023-04-09T07:02:16.656Z,9.744907
2023-04-09T07:03:16.663Z,9.745301
2023-04-09T07:04:16.708Z,9.745324
2023-04-09T07:05:16.583Z,9.744380
2023-04-09T07:06:16.581Z,9.745289
2023-04-09T07:07:16.551Z,9.746056
2023-04-09T07:08:16.542Z,9.746128
2023-04-09T07:09:16.536Z,9.745807
2023-04-09T07:10:16.520Z,9.746186
2023-04-09T07:11:16.545Z,9.745537
2023-04-09T07:12:16.512Z,9.745537
2023-04-09T07:13:16.507Z,9.745537
2023-04-09T07:14:16.499Z,9.745537
2023-04-09T07:15:16.496Z,9.745616
2023-04-09T07:16:16.532Z,9.745796
2023-04-09T07:17:16.473Z,9.745691
2023-04-09T07:18:16.464Z,9.745434
2023-04-09T07:19:16.458Z,9.745538
2023-04-09T07:20:16.446Z,9.746037
2023-04-09T07:21:16.463Z,9.745525
2023-04-09T07:22:16.429Z,9.745484
2023-04-09T07:23:16.427Z,9.745568
2023-04-09T07:24:16.416Z,9.745119
2023-04-09T07:25:16.408Z,9.745572
2023-04-09T07:26:16.433Z,9.745390
2023-04-09T07:27:16.396Z,9.745757
2023-04-09T07:28:16.535Z,9.745853
2023-04-09T07:29:16.378Z,9.745853
2023-04-09T07:30:16.380Z,9.745853
2023-04-09T07:31:16.431Z,9.745853
2023-04-09T07:32:16.355Z,9.745853
2023-04-09T07:33:16.348Z,9.745853
2023-04-09T07:34:16.338Z,9.745853
2023-04-09T07:35:16.336Z,9.745853
2023-04-09T07:36:16.422Z,9.745853
2023-04-09T07:37:16.316Z,9.745853
2023-04-09T07:38:16.316Z,9.745853
2023-04-09T07:39:16.309Z,9.745853
2023-04-09T07:40:16.300Z,9.745853
2023-04-09T07:41:16.304Z,9.745853
2023-04-09T07:42:16.273Z,9.745853
2023-04-09T07:43:17.429Z,9.745853
2023-04-09T07:44:16.260Z,9.745853
2023-04-09T07:45:16.263Z,9.745853
2023-04-09T07:46:16.303Z,9.745853
2023-04-09T07:47:16.239Z,9.744998
2023-04-09T07:48:16.225Z,9.744943
2023-04-09T07:49:16.234Z,9.745297
2023-04-09T07:50:16.208Z,9.745221
2023-04-09T07:51:16.228Z,9.745330
2023-04-09T07:52:16.192Z,9.745103
2023-04-09T07:53:16.189Z,9.745394
2023-04-09T07:54:16.175Z,9.745213
2023-04-09T07:55:17.351Z,9.745173
2023-04-09T07:56:16.199Z,9.745089
2023-04-09T07:57:16.154Z,9.745167
2023-04-09T07:58:16.145Z,9.745769
2023-04-09T07:59:16.143Z,9.745339
2023-04-09T08:00:16.129Z,9.745239
2023-04-09T08:01:16.149Z,9.745115
2023-04-09T08:02:16.202Z,9.745241
2023-04-09T08:03:16.212Z,9.745556
2023-04-09T08:04:16.211Z,9.745179
2023-04-09T08:05:16.125Z,9.745032
2023-04-09T08:06:16.108Z,9.745474
2023-04-09T08:07:16.077Z,9.745181
2023-04-09T08:08:16.074Z,9.745259
2023-04-09T08:09:16.058Z,9.745489
2023-04-09T08:10:16.046Z,9.745564
2023-04-09T08:11:16.088Z,9.745293
2023-04-09T08:12:16.050Z,9.744230
2023-04-09T08:13:16.032Z,9.742946
2023-04-09T08:14:16.018Z,9.743917
2023-04-09T08:15:16.014Z,9.745321
2023-04-09T08:16:16.113Z,9.746284
2023-04-09T08:17:15.995Z,9.746321
2023-04-09T08:18:15.985Z,9.745952
2023-04-09T08:19:15.984Z,9.745750
2023-04-09T08:20:15.976Z,9.745512
2023-04-09T08:21:15.991Z,9.745180
2023-04-09T08:22:15.953Z,9.745538
2023-04-09T08:23:15.946Z,9.745279
2023-04-09T08:24:15.945Z,9.745758
2023-04-09T08:25:15.954Z,9.746061
2023-04-09T08:26:15.951Z,9.745744
2023-04-09T08:27:15.924Z,9.745435
2023-04-09T08:28:15.917Z,9.745394
2023-04-09T08:29:15.900Z,9.745730
2023-04-09T08:30:16.974Z,9.745707
2023-04-09T08:31:15.915Z,9.745189
2023-04-09T08:32:15.993Z,9.745208
2023-04-09T08:33:15.872Z,9.745332
2023-04-09T08:34:15.866Z,9.745237
2023-04-09T08:35:15.866Z,9.745124
2023-04-09T08:36:15.920Z,9.745470
2023-04-09T08:37:15.845Z,9.745626
2023-04-09T08:38:15.834Z,9.745590
2023-04-09T08:39:15.831Z,9.745407
2023-04-09T08:40:15.818Z,9.745510
2023-04-09T08:41:15.846Z,9.745514
2023-04-09T08:42:15.810Z,9.745446
2023-04-09T08:43:15.786Z,9.745298
2023-04-09T08:44:16.788Z,9.745704
2023-04-09T08:45:15.773Z,9.745352
2023-04-09T08:46:15.957Z,9.745417
2023-04-09T08:47:15.764Z,9.745367
2023-04-09T08:48:15.802Z,9.745590
2023-04-09T08:49:15.749Z,9.745550
2023-04-09T08:50:15.776Z,9.745415
2023-04-09T08:51:15.729Z,9.745451
2023-04-09T08:52:15.756Z,9.745231
2023-04-09T08:53:15.721Z,9.745420
2023-04-09T08:54:15.703Z,9.745762
2023-04-09T08:55:15.703Z,9.745687
2023-04-09T08:56:15.697Z,9.745524
2023-04-09T08:57:15.721Z,9.745589
2023-04-09T08:58:15.669Z,9.745747
2023-04-09T08:59:15.662Z,9.745522
2023-04-09T09:00:15.656Z,9.745548
2023-04-09T09:01:15.683Z,9.745471
2023-04-09T09:02:15.680Z,9.745195
2023-04-09T09:03:15.727Z,9.745953
2023-04-09T09:04:15.678Z,9.745989
2023-04-09T09:05:15.615Z,9.745725
2023-04-09T09:06:15.609Z,9.745775
2023-04-09T09:07:15.634Z,9.745777
2023-04-09T09:08:15.587Z,9.745634
2023-04-09T09:09:15.590Z,9.745880
2023-04-09T09:10:15.581Z,9.745510
2023-04-09T09:11:15.566Z,9.745722
2023-04-09T09:12:15.631Z,9.746024
2023-04-09T09:13:15.559Z,9.745788
2023-04-09T09:14:15.544Z,9.746071
2023-04-09T09:15:15.536Z,9.745938
2023-04-09T09:16:15.581Z,9.745650
2023-04-09T09:17:15.552Z,9.745723
2023-04-09T09:18:15.523Z,9.745680
2023-04-09T09:19:15.500Z,9.745564
2023-04-09T09:20:15.503Z,9.745790
2023-04-09T09:21:15.486Z,9.745672
2023-04-09T09:22:15.495Z,9.746028
2023-04-09T09:23:15.470Z,9.746028
2023-04-09T09:24:15.458Z,9.745937
2023-04-09T09:25:15.455Z,9.745402
2023-04-09T09:26:15.445Z,9.745474
2023-04-09T09:27:15.455Z,9.745595
2023-04-09T09:28:15.427Z,9.745760
2023-04-09T09:29:15.426Z,9.745527
2023-04-09T09:30:15.411Z,9.745642
2023-04-09T09:31:15.430Z,9.745381
2023-04-09T09:32:15.424Z,9.745381
2023-04-09T09:33:15.388Z,9.745173
2023-04-09T09:34:15.380Z,9.744884
2023-04-09T09:35:15.393Z,9.744760
2023-04-09T09:36:15.385Z,9.745250
2023-04-09T09:37:15.384Z,9.745250
2023-04-09T09:38:15.350Z,9.745299
2023-04-09T09:39:15.355Z,9.745402
2023-04-09T09:40:15.338Z,9.745410
2023-04-09T09:41:15.332Z,9.745553
2023-04-09T09:42:15.379Z,9.745597
2023-04-09T09:43:15.317Z,9.745460
2023-04-09T09:44:15.306Z,9.745574
2023-04-09T09:45:15.337Z,9.745676
2023-04-09T09:46:15.360Z,9.745563
2023-04-09T09:47:15.304Z,9.745596
2023-04-09T09:48:15.269Z,9.745493
2023-04-09T09:49:15.258Z,9.745564
2023-04-09T09:50:15.256Z,9.745445
2023-04-09T09:51:15.247Z,9.745375
2023-04-09T09:52:15.271Z,9.745280
2023-04-09T09:53:15.236Z,9.745293
2023-04-09T09:54:15.226Z,9.745439
2023-04-09T09:55:15.220Z,9.745171
2023-04-09T09:56:15.210Z,9.745614
2023-04-09T09:57:15.228Z,9.745453
2023-04-09T09:58:15.195Z,9.745639
2023-04-09T09:59:15.192Z,9.745765
2023-04-09T10:00:15.183Z,9.745880
2023-04-09T10:01:15.203Z,9.745795
2023-04-09T10:02:15.238Z,9.745494
2023-04-09T10:03:15.214Z,9.745263
2023-04-09T10:04:15.233Z,9.745175
2023-04-09T10:05:15.137Z,9.745188
2023-04-09T10:06:15.132Z,9.745280
2023-04-09T10:07:15.151Z,9.744883
2023-04-09T10:08:15.115Z,9.745404
2023-04-09T10:09:15.117Z,9.745532
2023-04-09T10:10:15.146Z,9.745433
2023-04-09T10:11:15.094Z,9.745647
2023-04-09T10:12:15.104Z,9.745610
2023-04-09T10:13:15.079Z,9.745590
2023-04-09T10:14:15.080Z,9.745737
2023-04-09T10:15:15.054Z,9.745177
2023-04-09T10:16:15.072Z,9.745566
2023-04-09T10:17:15.063Z,9.745540
2023-04-09T10:18:15.062Z,9.745436
2023-04-09T10:19:15.022Z,9.745391
2023-04-09T10:20:15.034Z,9.745426
2023-04-09T10:21:15.006Z,9.745514
2023-04-09T10:22:15.040Z,9.745421
2023-04-09T10:23:14.999Z,9.745358
2023-04-09T10:24:15.065Z,9.745670
2023-04-09T10:25:15.025Z,9.745858
2023-04-09T10:26:14.963Z,9.745721
2023-04-09T10:27:16.221Z,9.745866
2023-04-09T10:28:15.977Z,9.745610
2023-04-09T10:29:14.944Z,9.745996
2023-04-09T10:30:14.950Z,9.745684
2023-04-09T10:31:14.962Z,9.746106
2023-04-09T10:32:14.913Z,9.746227
2023-04-09T10:33:14.930Z,9.746248
2023-04-09T10:34:14.911Z,9.746121
2023-04-09T10:35:14.893Z,9.745794
2023-04-09T10:36:14.956Z,9.745722
2023-04-09T10:37:14.893Z,9.745943
2023-04-09T10:38:14.900Z,9.745985
2023-04-09T10:39:14.862Z,9.745644
2023-04-09T10:40:14.889Z,9.745808
2023-04-09T10:41:14.868Z,9.745584
2023-04-09T10:42:14.844Z,9.745586
2023-04-09T10:43:14.870Z,9.745167
2023-04-09T10:44:14.825Z,9.745403
2023-04-09T10:45:15.048Z,9.745504
2023-04-09T10:46:14.824Z,9.745446
2023-04-09T10:47:14.805Z,9.745662
2023-04-09T10:48:14.820Z,9.745371
2023-04-09T10:49:14.784Z,9.745845
2023-04-09T10:50:14.782Z,9.746029
2023-04-09T10:51:14.774Z,9.746062
2023-04-09T10:52:14.772Z,9.745973
2023-04-09T10:53:14.782Z,9.745889
2023-04-09T10:54:14.746Z,9.745764
2023-04-09T10:55:14.737Z,9.745743
2023-04-09T10:56:14.730Z,9.745648
2023-04-09T10:57:14.725Z,9.745802
2023-04-09T10:58:14.739Z,9.745981
2023-04-09T10:59:14.703Z,9.745813
2023-04-09T11:00:14.697Z,9.745988
2023-04-09T11:01:14.697Z,9.745649
2023-04-09T11:02:14.727Z,9.745620
2023-04-09T11:03:14.890Z,9.745472
2023-04-09T11:04:14.677Z,9.745584
2023-04-09T11:05:14.659Z,9.745470
2023-04-09T11:06:14.655Z,9.745517
2023-04-09T11:07:14.649Z,9.745638
2023-04-09T11:08:14.669Z,9.745692
2023-04-09T11:09:14.633Z,9.745625
2023-04-09T11:10:14.624Z,9.745609
2023-04-09T11:11:14.620Z,9.745554
2023-04-09T11:12:14.616Z,9.745593
2023-04-09T11:13:14.618Z,9.745438
2023-04-09T11:14:14.593Z,9.745482
2023-04-09T11:15:14.575Z,9.745527
2023-04-09T11:16:22.839Z,9.745540
2023-04-09T11:17:15.564Z,9.745545
2023-04-09T11:18:14.586Z,9.745482
2023-04-09T11:19:14.549Z,9.745581
2023-04-09T11:20:14.549Z,9.745594
2023-04-09T11:21:14.531Z,9.745583
2023-04-09T11:22:14.531Z,9.745578
2023-04-09T11:23:14.544Z,9.745618
2023-04-09T11:24:14.504Z,9.745586
2023-04-09T11:25:14.497Z,9.745612
2023-04-09T11:26:14.494Z,9.745537
2023-04-09T11:27:14.483Z,9.745524
2023-04-09T11:28:14.492Z,9.745593
2023-04-09T11:29:14.460Z,9.745625
2023-04-09T11:30:14.458Z,9.745609
2023-04-09T11:31:14.454Z,9.745670
2023-04-09T11:32:14.451Z,9.745711
2023-04-09T11:33:15.146Z,9.745890
2023-04-09T11:34:14.421Z,9.745635
2023-04-09T11:35:14.422Z,9.745614
2023-04-09T11:36:14.446Z,9.745631
2023-04-09T11:37:14.403Z,9.745681
2023-04-09T11:38:14.419Z,9.745528
2023-04-09T11:39:14.385Z,9.745557
2023-04-09T11:40:14.397Z,9.745537
2023-04-09T11:41:14.367Z,9.745534
2023-04-09T11:42:14.352Z,9.745548
2023-04-09T11:43:14.375Z,9.745611
2023-04-09T11:44:14.336Z,9.745624